createdAt,value
2022-12-28T00:00:43.120Z,101379.59
2022-12-28T00:05:46.327Z,101373.19
2022-12-28T00:11:07.751Z,101367.59
2022-12-28T00:16:24.511Z,101372.47
2022-12-28T00:21:28.310Z,101371.28
2022-12-28T00:26:34.135Z,101370.06
2022-12-28T00:31:37.239Z,101365.34
2022-12-28T00:37:10.260Z,101360.47
2022-12-28T00:42:03.264Z,101364.16
2022-12-28T00:47:06.664Z,101371.38
2022-12-28T00:52:09.757Z,101377.72
2022-12-28T00:57:12.700Z,101384.06
2022-12-28T01:02:15.633Z,101374.88
2022-12-28T01:07:18.827Z,101381.16
2022-12-28T01:12:21.879Z,101382.25
2022-12-28T01:17:24.911Z,101379.88
2022-12-28T01:22:28.248Z,101384.28
2022-12-28T01:27:31.099Z,101396.47
2022-12-28T01:32:34.024Z,101404.41
2022-12-28T01:37:36.950Z,101399.97
2022-12-28T01:42:40.283Z,101399.22
2022-12-28T01:47:43.638Z,101396.75
2022-12-28T01:52:59.805Z,101382.13
2022-12-28T01:58:11.929Z,101378.31
2022-12-28T02:03:21.691Z,101383.34
2022-12-28T02:08:41.523Z,101380.75
2022-12-28T02:13:47.840Z,101369.31
2022-12-28T02:18:51.937Z,101363.66
2022-12-28T02:24:31.816Z,101376.59
2022-12-28T02:30:07.508Z,101376.16
2022-12-28T02:35:46.029Z,101371.31
2022-12-28T02:40:59.967Z,101371.91
2022-12-28T02:46:30.973Z,101373.59
2022-12-28T02:52:02.091Z,101378.66
2022-12-28T02:58:09.376Z,101365.34
2022-12-28T03:03:34.047Z,101361.16
2022-12-28T03:09:13.112Z,101345.75
2022-12-28T03:14:29.008Z,101351.06
2022-12-28T03:20:00.366Z,101357.06
2022-12-28T03:25:32.327Z,101358.25
2022-12-28T03:31:00.170Z,101364.44
2022-12-28T03:36:35.206Z,101352.00
2022-12-28T03:42:40.460Z,101379.16
2022-12-28T03:47:48.151Z,101351.44
2022-12-28T03:52:52.670Z,101344.41
2022-12-28T03:57:56.992Z,101339.94
2022-12-28T04:02:59.818Z,101334.59
2022-12-28T04:08:02.796Z,101334.13
2022-12-28T04:13:05.706Z,101320.66
2022-12-28T04:18:08.727Z,101319.31
2022-12-28T04:23:11.558Z,101326.41
2022-12-28T04:28:14.525Z,101323.22
2022-12-28T04:33:17.727Z,101311.34
2022-12-28T04:38:21.749Z,101315.75
2022-12-28T04:43:24.919Z,101310.75
2022-12-28T04:48:28.657Z,101316.88
2022-12-28T04:53:35.870Z,101306.69
2022-12-28T04:58:39.146Z,101313.00
2022-12-28T05:03:48.166Z,101315.59
2022-12-28T05:08:57.597Z,101316.63
2022-12-28T05:14:00.397Z,101314.25
2022-12-28T05:19:03.759Z,101310.94
2022-12-28T05:24:07.355Z,101322.28
2022-12-28T05:29:10.195Z,101320.69
2022-12-28T05:34:13.019Z,101330.25
2022-12-28T05:39:16.607Z,101325.97
2022-12-28T05:44:19.505Z,101325.97
2022-12-28T05:49:22.569Z,101334.66
2022-12-28T05:54:25.449Z,101336.47
2022-12-28T05:59:28.349Z,101342.59
2022-12-28T06:04:31.635Z,101346.16
2022-12-28T06:09:34.932Z,101332.41
2022-12-28T06:14:37.889Z,101342.59
2022-12-28T06:19:40.858Z,101335.56
2022-12-28T06:24:43.747Z,101313.69
2022-12-28T06:29:46.687Z,101328.28
2022-12-28T06:34:49.601Z,101331.59
2022-12-28T06:39:52.514Z,101333.16
2022-12-28T06:44:55.689Z,101339.22
2022-12-28T06:49:58.612Z,101340.75
2022-12-28T06:55:02.276Z,101344.44
2022-12-28T07:00:07.181Z,101345.41
2022-12-28T07:05:10.183Z,101343.59
2022-12-28T07:10:14.399Z,101332.69
2022-12-28T07:15:17.493Z,101334.28
2022-12-28T07:20:20.612Z,101335.06
2022-12-28T07:25:23.446Z,101326.13
2022-12-28T07:30:26.429Z,101347.53
2022-12-28T07:35:29.485Z,101338.56
2022-12-28T07:40:32.396Z,101345.81
2022-12-28T07:45:35.304Z,101350.59
2022-12-28T07:50:38.391Z,101344.06
2022-12-28T07:55:42.716Z,101340.16
2022-12-28T08:00:45.682Z,101344.97
2022-12-28T08:05:48.773Z,101338.97
2022-12-28T08:10:51.699Z,101340.50
2022-12-28T08:15:55.597Z,101338.19
2022-12-28T08:21:10.516Z,101324.66
2022-12-28T08:26:21.297Z,101324.56
2022-12-28T08:31:33.970Z,101320.72
2022-12-28T08:36:37.199Z,101314.75
2022-12-28T08:41:40.217Z,101320.66
2022-12-28T08:46:43.331Z,101303.94
2022-12-28T08:51:46.111Z,101313.59
2022-12-28T08:56:50.261Z,101317.00
2022-12-28T09:01:53.380Z,101318.84
2022-12-28T09:06:56.439Z,101320.97
2022-12-28T09:11:59.267Z,101309.53
2022-12-28T09:17:02.449Z,101296.06
2022-12-28T09:22:05.364Z,101299.06
2022-12-28T09:27:08.211Z,101284.47
2022-12-28T09:32:11.060Z,101288.59
2022-12-28T09:37:14.111Z,101283.41
2022-12-28T09:42:29.057Z,101283.63
2022-12-28T09:47:46.460Z,101285.44
2022-12-28T09:53:26.890Z,101262.69
2022-12-28T09:58:33.447Z,101255.34
2022-12-28T10:03:43.246Z,101241.31
2022-12-28T10:08:49.731Z,101236.81
2022-12-28T10:14:02.198Z,101233.69
2022-12-28T10:19:07.172Z,101222.59
2022-12-28T10:24:30.872Z,101222.78
2022-12-28T10:29:34.705Z,101220.88
2022-12-28T10:34:53.016Z,101231.06
2022-12-28T10:40:42.585Z,101211.00
2022-12-28T10:45:53.579Z,101217.31
2022-12-28T10:51:01.557Z,101211.97
2022-12-28T10:56:21.351Z,101204.91
2022-12-28T11:01:27.676Z,101205.81
2022-12-28T11:07:01.994Z,101201.66
2022-12-28T11:12:26.663Z,101204.16
2022-12-28T11:17:37.717Z,101190.94
2022-12-28T11:22:40.751Z,101179.22
2022-12-28T11:27:48.224Z,101176.97
2022-12-28T11:32:58.807Z,101162.69
2022-12-28T11:38:05.739Z,101162.88
2022-12-28T11:43:28.597Z,101145.41
2022-12-28T11:48:44.037Z,101124.81
2022-12-28T11:53:46.846Z,101118.84
2022-12-28T11:58:58.825Z,101099.25
2022-12-28T12:04:01.957Z,101096.25
2022-12-28T12:09:04.920Z,101087.81
2022-12-28T12:14:08.918Z,101081.16
2022-12-28T12:19:27.009Z,101079.31
2022-12-28T12:24:42.931Z,101077.44
2022-12-28T12:29:57.015Z,101078.16
2022-12-28T12:35:05.998Z,101056.56
2022-12-28T12:40:52.687Z,101059.75
2022-12-28T12:46:30.841Z,101059.13
2022-12-28T12:51:57.749Z,101044.03
2022-12-28T12:57:24.402Z,101035.69
2022-12-28T13:02:39.602Z,101036.44
2022-12-28T13:07:42.476Z,101028.53
2022-12-28T13:12:45.663Z,101017.28
2022-12-28T13:18:44.025Z,101019.97
2022-12-28T13:23:45.281Z,101024.41
2022-12-28T13:29:10.553Z,101005.31
2022-12-28T13:34:13.432Z,100990.41
2022-12-28T13:39:19.067Z,100995.00
2022-12-28T13:44:43.956Z,100975.91
2022-12-28T13:50:08.882Z,100963.97
2022-12-28T13:55:24.102Z,100972.63
2022-12-28T14:00:30.041Z,100992.13
2022-12-28T14:05:34.097Z,100993.16
2022-12-28T14:10:37.513Z,100994.25
2022-12-28T14:15:43.823Z,100988.47
2022-12-28T14:20:55.242Z,100974.06
2022-12-28T14:26:05.189Z,100966.09
2022-12-28T14:31:13.378Z,100956.41
2022-12-28T14:36:47.104Z,100948.66
2022-12-28T14:41:50.316Z,100961.72
2022-12-28T14:46:54.632Z,100968.97
2022-12-28T14:52:17.796Z,100970.94
2022-12-28T14:57:36.926Z,100981.44
2022-12-28T15:02:43.096Z,100985.00
2022-12-28T15:07:46.399Z,100992.09
2022-12-28T15:12:49.378Z,100988.97
2022-12-28T15:17:52.320Z,100980.63
2022-12-28T15:22:55.497Z,100979.16
2022-12-28T15:27:58.486Z,100978.44
2022-12-28T15:33:01.281Z,100978.94
2022-12-28T15:38:04.835Z,100983.78
2022-12-28T15:43:07.781Z,100981.56
2022-12-28T15:48:10.747Z,100982.03
2022-12-28T15:53:13.715Z,100979.16
2022-12-28T15:58:16.541Z,100979.59
2022-12-28T16:03:19.331Z,100976.59
2022-12-28T16:08:22.252Z,100977.72
2022-12-28T16:13:25.455Z,100966.75
2022-12-28T16:18:28.774Z,100985.84
2022-12-28T16:23:38.981Z,100978.28
2022-12-28T16:28:42.226Z,100975.00
2022-12-28T16:33:45.139Z,100969.00
2022-12-28T16:38:48.010Z,100971.72
2022-12-28T16:43:52.441Z,100966.94
2022-12-28T16:48:55.547Z,100970.00
2022-12-28T16:53:58.748Z,100970.06
2022-12-28T16:59:02.103Z,100971.22
2022-12-28T17:04:05.725Z,100960.38
2022-12-28T17:09:09.465Z,100958.06
2022-12-28T17:14:12.975Z,100961.78
2022-12-28T17:19:16.081Z,100962.78
2022-12-28T17:24:19.067Z,100958.31
2022-12-28T17:29:22.412Z,100961.66
2022-12-28T17:34:25.752Z,100949.41
2022-12-28T17:39:30.283Z,100942.81
2022-12-28T17:44:36.108Z,100938.25
2022-12-28T17:49:38.987Z,100931.38
2022-12-28T17:54:41.986Z,100931.06
2022-12-28T17:59:45.257Z,100932.44
2022-12-28T18:04:48.311Z,100935.59
2022-12-28T18:09:51.423Z,100921.56
2022-12-28T18:14:54.365Z,100911.03
2022-12-28T18:19:57.346Z,100902.06
2022-12-28T18:25:00.139Z,100905.03
2022-12-28T18:30:03.336Z,100911.41
2022-12-28T18:35:07.205Z,100915.38
2022-12-28T18:40:10.678Z,100920.09
2022-12-28T18:45:13.690Z,100923.00
2022-12-28T18:50:16.964Z,100936.03
2022-12-28T18:55:21.328Z,100921.53
2022-12-28T19:00:24.269Z,100915.63
2022-12-28T19:05:27.706Z,100934.72
2022-12-28T19:10:30.757Z,100931.41
2022-12-28T19:15:33.917Z,100938.44
2022-12-28T19:20:36.864Z,100934.38
2022-12-28T19:25:39.829Z,100926.84
2022-12-28T19:30:42.896Z,100928.81
2022-12-28T19:35:45.789Z,100938.66
2022-12-28T19:40:48.570Z,100940.50
2022-12-28T19:45:51.381Z,100932.09
2022-12-28T19:50:54.309Z,100940.97
2022-12-28T19:56:13.338Z,100924.00
2022-12-28T20:01:20.645Z,100918.94
2022-12-28T20:06:29.721Z,100919.06
2022-12-28T20:11:32.699Z,100914.00
2022-12-28T20:16:36.370Z,100904.34
2022-12-28T20:21:41.558Z,100904.28
2022-12-28T20:26:44.637Z,100905.84
2022-12-28T20:31:50.692Z,100891.06
2022-12-28T20:36:53.860Z,100890.94
2022-12-28T20:42:14.918Z,100887.41
2022-12-28T20:47:18.198Z,100882.06
2022-12-28T20:52:21.371Z,100897.41
2022-12-28T20:57:24.229Z,100901.69
2022-12-28T21:02:27.189Z,100903.44
2022-12-28T21:07:32.217Z,100901.84
2022-12-28T21:12:35.358Z,100890.94
2022-12-28T21:17:39.031Z,100895.22
2022-12-28T21:22:42.001Z,100900.84
2022-12-28T21:27:44.765Z,100888.28
2022-12-28T21:32:50.795Z,100886.03
2022-12-28T21:37:53.903Z,100895.94
2022-12-28T21:42:56.923Z,100883.31
2022-12-28T21:48:00.040Z,100883.81
2022-12-28T21:53:03.624Z,100880.56
2022-12-28T21:58:07.397Z,100877.31
2022-12-28T22:03:28.782Z,100874.00
2022-12-28T22:08:51.006Z,100879.53
2022-12-28T22:13:53.768Z,100872.75
2022-12-28T22:19:04.421Z,100866.72
2022-12-28T22:24:07.834Z,100865.94
2022-12-28T22:29:10.924Z,100852.03
2022-12-28T22:34:13.814Z,100848.50
2022-12-28T22:39:16.855Z,100836.56
2022-12-28T22:44:19.844Z,100830.56
2022-12-28T22:49:22.941Z,100820.44
2022-12-28T22:54:26.319Z,100821.28
2022-12-28T22:59:29.373Z,100821.34
2022-12-28T23:04:32.533Z,100813.66
2022-12-28T23:09:35.541Z,100803.41
2022-12-28T23:14:57.224Z,100796.66
2022-12-28T23:20:18.628Z,100784.75
2022-12-28T23:25:43.226Z,100797.00
2022-12-28T23:30:49.264Z,100785.09
2022-12-28T23:35:52.284Z,100772.25
2022-12-28T23:41:15.191Z,100785.94
2022-12-28T23:46:18.060Z,100771.25
2022-12-28T23:51:21.115Z,100770.53
2022-12-28T23:56:25.062Z,100778.22
